Etusivu
METAR-TAF:

METAR-TAF

Lentoasemat :

Air Force Base Overberg

Bredasdorp, Etelä-Afrikka

Leveyspiiri: 34-33-17S, Pituuspiiri: 20-15-02E, korkeus merenpinnasta: 16 m

Tämänhetkinen sää

Tämä raportti tehtiin 1 tunti ja 3 minuuttia sitten, kello 12.00 UTC
Tuuli 19 kn etelästä/kaakosta puuskistuen 31 kn:hen
Lämpötila 15°C
Kosteus 55%
Ilmanpaine 1023 hPa

METAR: FAOB 011200Z AUTO 16019G31KT //// // ////// 15/06 Q1023

Aika: 15:03 (13:03 UTC)


TAF: puuttuu

Säähavainnot ja -ennusteet yli 4000 lentoasemalta (METAR- ja TAF-raportit).

Käytössä olevat sääasemat on merkitty karttaan keltaisilla ja punaisilla pisteillä.

Aseta hiiri pisteen päälle nähdäksesi sääaseman nimen.

Klikkaa sitten nähdäksesi säähavainnot ja -ennusteet.

Kartan vaihtaminen: klikkaa mustalla rastilla varustettuja vihreitä pisteitä, niin voit zoomata sisään; viivalla varustettua vihreää pistettä, niin voit zoomata ulos tai vihreitä nuolia, niin pääset viereisille kartoille.


METAR-TAF: